Time;durP1;ratioP1;P1;durP2;ratioP2;P2;SDS_P1;SDS_P2;PMS_P1;PMS_P2;Temp;Humidity;BMP_temperature;BMP_pressure;BME280_temperature;BME280_humidity;BME280_pressure;Samples;Min_cycle;Max_cycle;Signal;HPM_P1;HPM_P2
2022/01/10 00:01:06;;;;;;;;;;;;;;;8.62;100.00;98249.34;5109959;28;19932;-77
2022/01/10 00:03:33;;;;;;;;;;;;;;;8.73;100.00;98258.28;5111349;28;19924;-77
2022/01/10 00:06:01;;;;;;;;;;;;;;;9.11;100.00;98258.63;5093402;28;19924;-76
2022/01/10 00:08:28;;;;;;;;;;;;;;;9.11;100.00;98267.78;5110835;28;19931;-77
2022/01/10 00:10:55;;;;;;;;;;;;;;;8.86;100.00;98270.31;5109979;28;19928;-77
2022/01/10 00:13:23;;;;;;;;;;;;;;;8.77;100.00;98283.25;5093267;28;19924;-77
2022/01/10 00:15:50;;;;;;;;;;;;;;;9.00;100.00;98283.16;5109816;28;19928;-77
2022/01/10 00:18:17;;;;;;;;;;;;;;;9.22;100.00;98286.25;5109918;28;19924;-77
2022/01/10 00:20:44;;;;;;;;;;;;;;;9.30;100.00;98293.25;5111108;28;20402;-77
2022/01/10 00:23:11;;;;;;;;;;;;;;;9.35;100.00;98292.72;5109502;28;20009;-77
2022/01/10 00:25:38;;;;;;;;;;;;;;;9.33;100.00;98284.00;5110840;28;19923;-77
2022/01/10 00:28:05;;;;;;;;;;;;;;;9.30;100.00;98284.88;5105363;28;19982;-77
2022/01/10 00:30:32;;;;;;;;;;;;;;;9.15;100.00;98293.56;5089031;28;19924;-77
2022/01/10 00:33:00;;;;;;;;;;;;;;;9.04;100.00;98312.50;5090220;28;20295;-77
2022/01/10 00:35:27;;;;;;;;;;;;;;;9.07;100.00;98311.66;5089203;28;19925;-77
2022/01/10 00:37:54;;;;;;;;;;;;;;;8.39;100.00;98327.38;5088010;28;19928;-77
2022/01/10 00:40:21;;;;;;;;;;;;;;;8.34;100.00;98339.03;5075145;28;19932;-77
2022/01/10 00:42:54;;;;;;;;;;;;;;;8.75;100.00;98339.38;5058901;28;19949;-77
2022/01/10 00:45:25;;;;;;;;;;;;;;;8.76;100.00;98337.41;5075418;28;19931;-77
2022/01/10 00:47:53;;;;;;;;;;;;;;;8.86;100.00;98339.19;5042473;28;19963;-76
2022/01/10 00:50:20;;;;;;;;;;;;;;;8.72;100.00;98337.47;5091953;28;19980;-79
2022/01/10 00:52:48;;;;;;;;;;;;;;;8.44;100.00;98334.44;5058538;28;20233;-79
2022/01/10 00:55:15;;;;;;;;;;;;;;;7.98;100.00;98340.81;5109178;28;20270;-79
2022/01/10 00:57:42;;;;;;;;;;;;;;;7.61;100.00;98343.03;5058638;28;20345;-79
2022/01/10 01:00:11;;;;;;;;;;;;;;;7.65;100.00;98344.53;5075294;28;19925;-78
2022/01/10 01:02:39;;;;;;;;;;;;;;;7.91;100.00;98357.63;5075289;28;19929;-78
2022/01/10 01:05:09;;;;;;;;;;;;;;;7.94;100.00;98354.00;5076195;28;20015;-78
2022/01/10 01:07:38;;;;;;;;;;;;;;;7.73;100.00;98362.69;5076069;28;19925;-79
2022/01/10 01:15:18;;;;;;;;;;;;;;;8.29;100.00;98386.81;5091553;28;19913;-79
2022/01/10 01:18:13;;;;;;;;;;;;;;;8.41;100.00;98388.97;5091625;28;19954;-79
2022/01/10 01:20:45;;;;;;;;;;;;;;;8.66;100.00;98391.31;5089930;28;19924;-79
2022/01/10 01:26:04;;;;;;;;;;;;;;;8.24;100.00;98386.53;5091476;28;19924;-79
2022/01/10 01:28:31;;;;;;;;;;;;;;;8.13;100.00;98380.31;5106681;28;19928;-78
2022/01/10 01:30:58;;;;;;;;;;;;;;;8.32;100.00;98382.38;5090093;28;19931;-78
2022/01/10 01:33:26;;;;;;;;;;;;;;;8.49;100.00;98392.44;5090059;28;20019;-79
2022/01/10 01:35:54;;;;;;;;;;;;;;;8.52;100.00;98392.38;5089606;28;20291;-79
2022/01/10 01:38:22;;;;;;;;;;;;;;;8.39;100.00;98396.97;5062704;28;19963;-77
2022/01/10 01:40:57;;;;;;;;;;;;;;;7.97;100.00;98400.44;5110194;28;20617;-77
2022/01/10 01:43:24;;;;;;;;;;;;;;;7.79;100.00;98404.72;5110247;28;20355;-77
2022/01/10 01:45:51;;;;;;;;;;;;;;;7.92;100.00;98411.28;5093494;28;20401;-77
2022/01/10 01:48:18;;;;;;;;;;;;;;;8.22;100.00;98416.75;5076621;28;20299;-77
2022/01/10 01:50:47;;;;;;;;;;;;;;;8.00;100.00;98424.63;5109953;28;20525;-77
2022/01/10 01:53:14;;;;;;;;;;;;;;;8.37;100.00;98430.03;5110007;28;19931;-77
2022/01/10 01:55:44;;;;;;;;;;;;;;;8.62;100.00;98433.16;5093181;28;19924;-77
2022/01/10 01:58:11;;;;;;;;;;;;;;;8.67;100.00;98431.88;5109870;28;19924;-76
2022/01/10 02:00:38;;;;;;;;;;;;;;;8.51;100.00;98438.09;5092998;28;20450;-76
2022/01/10 02:03:05;;;;;;;;;;;;;;;8.37;100.00;98441.16;5092568;28;19931;-77
2022/01/10 02:05:34;;;;;;;;;;;;;;;8.62;100.00;98437.91;5109455;28;19924;-76
2022/01/10 02:08:02;;;;;;;;;;;;;;;8.50;100.00;98436.56;5109193;28;20332;-76
2022/01/10 02:10:29;;;;;;;;;;;;;;;8.71;100.00;98440.94;5106976;28;19924;-76
2022/01/10 02:12:56;;;;;;;;;;;;;;;8.79;100.00;98445.97;5099352;28;19932;-76
2022/01/10 02:15:32;;;;;;;;;;;;;;;8.87;100.00;98444.63;5084772;28;19975;-76
2022/01/10 02:18:03;;;;;;;;;;;;;;;8.65;100.00;98457.34;5084303;28;19924;-76
2022/01/10 02:20:32;;;;;;;;;;;;;;;8.66;100.00;98464.50;5035603;28;20012;-76
2022/01/10 02:23:01;;;;;;;;;;;;;;;8.85;100.00;98466.53;5068810;28;19978;-76
2022/01/10 02:25:45;;;;;;;;;;;;;;;8.96;100.00;98466.34;5058832;28;19931;-76
2022/01/10 02:28:12;;;;;;;;;;;;;;;8.98;100.00;98464.69;5038896;28;19932;-76
2022/01/10 02:30:40;;;;;;;;;;;;;;;9.03;100.00;98467.00;5055337;28;20402;-76
2022/01/10 02:33:07;;;;;;;;;;;;;;;9.14;100.00;98461.22;5055041;28;20020;-76
2022/01/10 02:35:42;;;;;;;;;;;;;;;9.20;100.00;98462.28;5071987;28;19925;-76
2022/01/10 02:38:09;;;;;;;;;;;;;;;9.14;100.00;98464.78;5055302;28;19928;-76
2022/01/10 02:40:36;;;;;;;;;;;;;;;9.16;100.00;98470.72;5038724;28;19924;-76
2022/01/10 02:43:07;;;;;;;;;;;;;;;9.33;100.00;98470.81;5071505;28;19951;-76
2022/01/10 02:45:34;;;;;;;;;;;;;;;9.37;100.00;98474.28;5054993;28;19925;-76
2022/01/10 02:48:01;;;;;;;;;;;;;;;9.34;100.00;98473.16;5088486;28;19929;-76
2022/01/10 02:50:30;;;;;;;;;;;;;;;9.36;100.00;98472.72;5055000;28;19963;-76
2022/01/10 02:52:57;;;;;;;;;;;;;;;9.31;100.00;98467.66;5071431;28;19971;-76
2022/01/10 02:55:25;;;;;;;;;;;;;;;9.23;100.00;98480.13;5054923;28;20376;-76
2022/01/10 02:57:51;;;;;;;;;;;;;;;9.36;100.00;98478.31;5054939;28;19967;-76
2022/01/10 03:00:20;;;;;;;;;;;;;;;9.35;100.00;98483.09;5054776;28;19932;-76
2022/01/10 03:02:52;;;;;;;;;;;;;;;9.36;100.00;98487.44;5054430;28;19932;-76
2022/01/10 03:05:22;;;;;;;;;;;;;;;9.29;100.00;98487.59;5088213;28;19925;-76
2022/01/10 03:07:50;;;;;;;;;;;;;;;9.37;100.00;98502.97;5054630;28;20313;-76
2022/01/10 03:10:17;;;;;;;;;;;;;;;9.12;100.00;98511.81;5037885;28;19925;-76
2022/01/10 03:12:44;;;;;;;;;;;;;;;8.62;100.00;98516.69;5037592;28;19924;-76
2022/01/10 03:15:13;;;;;;;;;;;;;;;8.27;100.00;98514.47;5054389;28;19929;-75
2022/01/10 03:17:40;;;;;;;;;;;;;;;8.06;100.00;98530.66;5071420;28;20272;-76
2022/01/10 03:20:08;;;;;;;;;;;;;;;8.38;100.00;98537.38;5070883;28;19925;-76
2022/01/10 03:22:35;;;;;;;;;;;;;;;8.12;100.00;98540.16;5055597;28;19925;-76
2022/01/10 03:25:03;;;;;;;;;;;;;;;7.88;100.00;98544.84;5087774;28;19925;-76
2022/01/10 03:27:32;;;;;;;;;;;;;;;8.04;100.00;98560.91;5070803;28;20361;-76
2022/01/10 03:30:00;;;;;;;;;;;;;;;7.91;100.00;98554.31;5037500;28;19967;-76
2022/01/10 03:32:27;;;;;;;;;;;;;;;8.11;100.00;98572.75;5087547;28;19925;-76
2022/01/10 03:35:02;;;;;;;;;;;;;;;8.42;100.00;98570.72;5053790;28;19925;-76
2022/01/10 03:37:29;;;;;;;;;;;;;;;8.66;100.00;98575.88;5053099;28;20002;-78
2022/01/10 03:39:57;;;;;;;;;;;;;;;8.80;100.00;98575.66;5055053;28;19931;-76
2022/01/10 03:42:24;;;;;;;;;;;;;;;8.92;100.00;98577.06;5053949;28;19925;-76
2022/01/10 03:44:52;;;;;;;;;;;;;;;8.79;100.00;98581.66;5070413;28;20019;-76
2022/01/10 03:47:21;;;;;;;;;;;;;;;8.61;100.00;98573.59;5070630;28;19925;-76
2022/01/10 03:49:49;;;;;;;;;;;;;;;8.68;100.00;98572.69;5053712;28;19924;-76
2022/01/10 03:52:16;;;;;;;;;;;;;;;8.56;100.00;98571.28;5037191;28;19925;-76
2022/01/10 03:54:43;;;;;;;;;;;;;;;8.69;100.00;98580.63;5054717;28;20014;-76
2022/01/10 03:57:11;;;;;;;;;;;;;;;8.48;100.00;98575.38;5053817;28;19931;-76
2022/01/10 03:59:38;;;;;;;;;;;;;;;8.53;100.00;98576.91;5069888;28;19931;-75
2022/01/10 04:02:06;;;;;;;;;;;;;;;8.29;100.00;98583.63;5070004;28;19931;-76
2022/01/10 04:04:37;;;;;;;;;;;;;;;8.32;100.00;98578.03;5053545;28;19925;-76
2022/01/10 04:07:05;;;;;;;;;;;;;;;8.58;100.00;98584.78;5053430;28;20364;-75
2022/01/10 04:09:32;;;;;;;;;;;;;;;8.74;100.00;98577.34;5053272;28;20276;-76
2022/01/10 04:11:59;;;;;;;;;;;;;;;8.31;100.00;98582.03;5053602;28;19936;-76
2022/01/10 04:14:27;;;;;;;;;;;;;;;8.23;100.00;98580.53;5052725;28;19925;-76
2022/01/10 04:16:54;;;;;;;;;;;;;;;8.47;100.00;98584.97;5069784;28;19924;-76
2022/01/10 04:19:21;;;;;;;;;;;;;;;8.50;100.00;98584.13;5036311;28;19932;-75
2022/01/10 04:21:48;;;;;;;;;;;;;;;8.73;100.00;98592.50;5053115;28;20027;-76
2022/01/10 04:24:16;;;;;;;;;;;;;;;8.84;100.00;98593.13;5036913;28;20376;-76
2022/01/10 04:26:44;;;;;;;;;;;;;;;8.87;100.00;98597.84;5053258;28;19974;-76
2022/01/10 04:29:14;;;;;;;;;;;;;;;8.71;100.00;98602.47;5052831;28;19931;-76
2022/01/10 04:31:42;;;;;;;;;;;;;;;8.91;100.00;98595.78;5036545;28;19931;-76
2022/01/10 04:34:09;;;;;;;;;;;;;;;8.90;100.00;98597.00;5054108;28;19929;-76
2022/01/10 04:36:36;;;;;;;;;;;;;;;8.57;100.00;98603.47;5052877;28;19970;-78
2022/01/10 04:39:04;;;;;;;;;;;;;;;8.58;100.00;98607.88;5069467;28;19983;-78
2022/01/10 04:41:33;;;;;;;;;;;;;;;8.49;100.00;98604.81;5052941;28;19925;-78
2022/01/10 04:44:00;;;;;;;;;;;;;;;8.61;100.00;98601.44;5052583;28;19948;-78
2022/01/10 04:46:28;;;;;;;;;;;;;;;8.49;100.00;98610.38;5069547;28;19931;-78
2022/01/10 04:48:55;;;;;;;;;;;;;;;8.42;100.00;98612.50;5052465;28;19971;-78
2022/01/10 04:51:23;;;;;;;;;;;;;;;8.60;100.00;98616.56;5052765;28;19992;-78
2022/01/10 04:53:51;;;;;;;;;;;;;;;8.52;100.00;98617.91;5052641;28;20012;-78
2022/01/10 04:56:19;;;;;;;;;;;;;;;8.68;100.00;98620.81;5036097;28;20351;-78
2022/01/10 04:58:49;;;;;;;;;;;;;;;8.75;100.00;98623.50;5068594;28;20035;-78
2022/01/10 05:01:16;;;;;;;;;;;;;;;8.75;100.00;98617.91;5085920;28;19931;-79
2022/01/10 05:03:46;;;;;;;;;;;;;;;8.79;100.00;98626.22;5052582;28;19979;-78
2022/01/10 05:06:13;;;;;;;;;;;;;;;8.79;100.00;98643.75;5036031;28;19925;-76
2022/01/10 05:08:40;;;;;;;;;;;;;;;8.77;100.00;98637.78;5035988;28;19964;-76
2022/01/10 05:11:12;;;;;;;;;;;;;;;8.73;100.00;98636.28;5035727;28;20022;-76
2022/01/10 05:13:40;;;;;;;;;;;;;;;8.61;100.00;98648.00;5035269;28;20454;-76
2022/01/10 05:16:07;;;;;;;;;;;;;;;8.49;100.00;98649.38;5052499;28;20326;-76
2022/01/10 05:18:34;;;;;;;;;;;;;;;8.45;100.00;98659.75;5085799;28;20362;-76
2022/01/10 05:21:01;;;;;;;;;;;;;;;8.38;100.00;98662.66;5052290;28;20376;-76
2022/01/10 05:23:28;;;;;;;;;;;;;;;8.45;100.00;98668.09;5035380;28;20394;-76
2022/01/10 05:25:56;;;;;;;;;;;;;;;8.51;100.00;98676.78;5085226;28;20405;-76
2022/01/10 05:28:23;;;;;;;;;;;;;;;7.96;100.00;98679.06;5052205;28;19929;-76
2022/01/10 05:30:51;;;;;;;;;;;;;;;8.03;100.00;98692.88;5052456;28;20394;-76
2022/01/10 05:33:23;;;;;;;;;;;;;;;8.03;100.00;98704.00;5063010;28;20019;-76
2022/01/10 05:35:52;;;;;;;;;;;;;;;8.24;100.00;98710.13;5075526;28;20359;-76
2022/01/10 05:38:19;;;;;;;;;;;;;;;8.00;100.00;98711.19;5075748;28;20264;-76
2022/01/10 05:40:46;;;;;;;;;;;;;;;8.05;100.00;98707.97;5075243;28;19932;-76
2022/01/10 05:43:13;;;;;;;;;;;;;;;8.00;100.00;98704.81;5075525;28;19924;-76
2022/01/10 05:45:43;;;;;;;;;;;;;;;8.22;100.00;98703.38;5092409;28;19931;-76
2022/01/10 05:48:14;;;;;;;;;;;;;;;8.38;100.00;98707.19;5075690;28;20050;-75
2022/01/10 05:50:44;;;;;;;;;;;;;;;8.29;100.00;98718.03;5092380;28;20010;-76
2022/01/10 05:53:11;;;;;;;;;;;;;;;8.39;100.00;98717.09;5075425;28;20363;-76
2022/01/10 05:55:39;;;;;;;;;;;;;;;8.39;100.00;98725.44;5092072;28;19924;-76
2022/01/10 05:58:08;;;;;;;;;;;;;;;8.41;100.00;98723.06;5092312;28;20417;-76
2022/01/10 06:00:39;;;;;;;;;;;;;;;8.00;100.00;98716.75;5077846;28;20077;-76
2022/01/10 06:03:06;;;;;;;;;;;;;;;7.99;100.00;98726.31;5096037;28;19924;-75
2022/01/10 06:05:41;;;;;;;;;;;;;;;8.30;100.00;98739.09;5079194;28;20029;-76
2022/01/10 06:08:09;;;;;;;;;;;;;;;8.33;100.00;98741.03;5096238;28;19930;-76
2022/01/10 06:10:39;;;;;;;;;;;;;;;8.19;100.00;98752.34;5079406;28;19993;-76
2022/01/10 06:13:27;;;;;;;;;;;;;;;7.93;100.00;98755.78;5081520;28;19924;-76
2022/01/10 06:15:54;;;;;;;;;;;;;;;7.19;100.00;98762.00;5129764;27;20392;-76
2022/01/10 06:18:21;;;;;;;;;;;;;;;7.31;100.00;98763.50;5095754;28;20034;-76
2022/01/10 06:20:48;;;;;;;;;;;;;;;7.45;100.00;98762.59;5095732;28;19963;-75
2022/01/10 06:23:16;;;;;;;;;;;;;;;7.29;100.00;98771.47;5078935;28;20007;-76
2022/01/10 06:25:43;;;;;;;;;;;;;;;7.25;100.00;98771.47;5078797;28;19924;-76
2022/01/10 06:28:11;;;;;;;;;;;;;;;7.25;100.00;98765.91;5078808;28;20409;-76
2022/01/10 06:30:38;;;;;;;;;;;;;;;7.46;100.00;98775.28;5095519;28;19973;-76
2022/01/10 06:33:07;;;;;;;;;;;;;;;7.92;100.00;98770.13;5095562;28;19928;-76
2022/01/10 06:35:34;;;;;;;;;;;;;;;7.42;100.00;98780.91;5078481;28;19924;-76
2022/01/10 06:38:04;;;;;;;;;;;;;;;7.29;100.00;98788.13;5096694;28;19985;-76
2022/01/10 06:40:32;;;;;;;;;;;;;;;7.29;100.00;98785.34;5112037;28;19930;-76
2022/01/10 06:43:00;;;;;;;;;;;;;;;7.88;100.00;98786.84;5078398;28;20329;-75
2022/01/10 06:45:28;;;;;;;;;;;;;;;7.99;100.00;98793.09;5094920;28;19985;-76
2022/01/10 06:47:56;;;;;;;;;;;;;;;8.12;100.00;98785.78;5094912;28;19932;-76
2022/01/10 06:50:23;;;;;;;;;;;;;;;8.31;100.00;98782.44;5094956;28;20283;-75
2022/01/10 06:52:53;;;;;;;;;;;;;;;8.37;100.00;98785.53;5077270;28;19946;-76
2022/01/10 06:55:22;;;;;;;;;;;;;;;8.38;100.00;98776.78;5077751;28;19931;-75
2022/01/10 06:57:49;;;;;;;;;;;;;;;8.39;100.00;98783.91;5078324;28;20390;-75
2022/01/10 07:00:21;;;;;;;;;;;;;;;8.42;100.00;98783.09;5078185;28;19935;-76
2022/01/10 07:02:51;;;;;;;;;;;;;;;8.48;100.00;98778.63;5095198;28;19928;-75
2022/01/10 07:05:18;;;;;;;;;;;;;;;8.53;100.00;98783.75;5095019;28;19973;-75
2022/01/10 07:07:50;;;;;;;;;;;;;;;8.55;100.00;98774.97;5078048;28;19924;-76
2022/01/10 07:10:32;;;;;;;;;;;;;;;8.48;100.00;98781.41;5077705;28;20359;-75
2022/01/10 07:13:00;;;;;;;;;;;;;;;8.42;100.00;98794.22;5077909;28;19924;-75
2022/01/10 07:15:29;;;;;;;;;;;;;;;8.08;100.00;98804.53;5094666;28;19931;-76
2022/01/10 07:18:00;;;;;;;;;;;;;;;7.83;100.00;98809.53;5094784;28;19931;-75
2022/01/10 07:20:33;;;;;;;;;;;;;;;7.80;100.00;98815.91;5077736;28;19932;-76
2022/01/10 07:23:00;;;;;;;;;;;;;;;8.26;100.00;98819.06;5077679;28;19924;-75
2022/01/10 07:25:27;;;;;;;;;;;;;;;8.36;100.00;98820.94;5093268;28;20351;-75
2022/01/10 07:27:54;;;;;;;;;;;;;;;8.50;100.00;98817.19;5075481;28;19924;-76
2022/01/10 07:30:21;;;;;;;;;;;;;;;8.14;100.00;98827.13;5074304;28;19935;-76
2022/01/10 07:32:48;;;;;;;;;;;;;;;8.30;100.00;98842.09;5074566;28;19978;-76
2022/01/10 07:35:15;;;;;;;;;;;;;;;8.03;100.00;98835.56;5073749;28;20015;-76
2022/01/10 07:37:43;;;;;;;;;;;;;;;8.36;100.00;98839.66;5074890;28;19931;-75
2022/01/10 07:40:10;;;;;;;;;;;;;;;8.28;100.00;98833.38;5074090;28;19931;-76
2022/01/10 07:42:37;;;;;;;;;;;;;;;8.06;100.00;98839.50;5075246;28;20066;-76
2022/01/10 07:45:11;;;;;;;;;;;;;;;8.30;100.00;98847.66;5056926;28;19983;-76
2022/01/10 07:47:38;;;;;;;;;;;;;;;8.48;100.00;98842.69;5073789;28;20375;-77
2022/01/10 07:50:06;;;;;;;;;;;;;;;8.54;100.00;98840.25;5073805;28;19929;-76
2022/01/10 07:52:34;;;;;;;;;;;;;;;8.55;100.00;98850.16;5056798;28;20011;-76
2022/01/10 07:55:01;;;;;;;;;;;;;;;8.45;100.00;98846.28;5074822;28;19926;-76
2022/01/10 07:57:29;;;;;;;;;;;;;;;8.68;100.00;98845.63;5073728;28;19928;-76
2022/01/10 07:59:56;;;;;;;;;;;;;;;8.82;100.00;98851.84;5073631;28;19956;-76
2022/01/10 08:02:24;;;;;;;;;;;;;;;8.85;100.00;98856.56;5073501;28;19925;-76
2022/01/10 08:04:52;;;;;;;;;;;;;;;8.93;100.00;98869.22;5075005;28;20389;-76
2022/01/10 08:07:19;;;;;;;;;;;;;;;8.94;100.00;98870.00;5056680;28;19924;-76
2022/01/10 08:09:46;;;;;;;;;;;;;;;8.89;100.00;98881.63;5073072;28;19928;-76
2022/01/10 08:12:13;;;;;;;;;;;;;;;8.68;100.00;98885.44;5074611;28;19924;-76
2022/01/10 08:14:41;;;;;;;;;;;;;;;8.86;100.00;98891.59;5073173;28;20069;-78
2022/01/10 08:17:08;;;;;;;;;;;;;;;8.65;100.00;98885.47;5040494;28;19932;-77
2022/01/10 08:19:35;;;;;;;;;;;;;;;8.65;100.00;98900.19;5073262;28;19931;-77
2022/01/10 08:22:02;;;;;;;;;;;;;;;8.74;100.00;98906.06;5073024;28;19955;-77
2022/01/10 08:24:30;;;;;;;;;;;;;;;8.70;100.00;98899.72;5074224;28;19924;-78
2022/01/10 08:26:58;;;;;;;;;;;;;;;8.90;100.00;98903.50;5073197;28;19924;-76
2022/01/10 08:29:25;;;;;;;;;;;;;;;8.89;100.00;98885.19;5073117;28;20375;-79
2022/01/10 08:31:52;;;;;;;;;;;;;;;8.91;100.00;98926.56;5074371;28;20272;-79
2022/01/10 08:34:21;;;;;;;;;;;;;;;8.86;100.00;98922.22;5072975;28;19932;-78
2022/01/10 08:36:50;;;;;;;;;;;;;;;8.88;100.00;98933.75;5073960;28;19978;-79
2022/01/10 08:39:17;;;;;;;;;;;;;;;9.02;100.00;98933.59;5073066;28;19924;-79
2022/01/10 08:41:44;;;;;;;;;;;;;;;9.07;100.00;98930.34;5074441;28;20019;-81
2022/01/10 08:44:14;;;;;;;;;;;;;;;9.15;100.00;98947.75;5073096;28;19925;-79
2022/01/10 08:46:41;;;;;;;;;;;;;;;8.62;100.00;98941.97;5073548;28;19932;-79
2022/01/10 08:49:09;;;;;;;;;;;;;;;8.58;100.00;98946.81;5070801;28;19932;-78
2022/01/10 08:51:36;;;;;;;;;;;;;;;8.63;100.00;98938.03;5072729;28;20023;-78
2022/01/10 08:54:06;;;;;;;;;;;;;;;9.00;100.00;98949.13;5075077;28;19982;-78
2022/01/10 08:56:33;;;;;;;;;;;;;;;8.78;100.00;98940.22;5074412;28;19950;-78
2022/01/10 08:59:02;;;;;;;;;;;;;;;8.56;100.00;98954.78;5066552;28;20295;-78
2022/01/10 09:01:33;;;;;;;;;;;;;;;8.80;100.00;98954.53;5074714;28;19928;-78
2022/01/10 09:04:00;;;;;;;;;;;;;;;8.74;100.00;98958.97;5073686;28;19924;-78
2022/01/10 09:06:27;;;;;;;;;;;;;;;8.84;100.00;98958.09;5073966;28;19999;-78
2022/01/10 09:08:54;;;;;;;;;;;;;;;8.68;100.00;98963.41;5073286;28;19931;-78
2022/01/10 09:11:22;;;;;;;;;;;;;;;8.60;100.00;98970.25;5073661;28;19924;-79
2022/01/10 09:13:49;;;;;;;;;;;;;;;9.01;100.00;98971.00;5072251;28;19924;-78
2022/01/10 09:16:16;;;;;;;;;;;;;;;8.44;100.00;98977.56;5074949;28;20028;-79
2022/01/10 09:18:43;;;;;;;;;;;;;;;8.99;100.00;98979.03;5071473;28;19967;-79
2022/01/10 09:21:12;;;;;;;;;;;;;;;9.20;100.00;98972.41;5069887;28;20334;-81
2022/01/10 09:23:39;;;;;;;;;;;;;;;8.74;100.00;98975.69;5053754;28;20013;-79
2022/01/10 09:26:07;;;;;;;;;;;;;;;9.20;100.00;98966.81;5091066;28;20019;-78
2022/01/10 09:28:34;;;;;;;;;;;;;;;9.34;100.00;98971.44;5073894;28;20018;-79
2022/01/10 09:31:02;;;;;;;;;;;;;;;9.45;100.00;98967.28;5073832;28;19948;-79
2022/01/10 09:33:29;;;;;;;;;;;;;;;9.58;100.00;98971.13;5072216;28;20383;-79
2022/01/10 09:35:56;;;;;;;;;;;;;;;9.61;100.00;98980.63;5075082;28;19931;-79
2022/01/10 09:38:23;;;;;;;;;;;;;;;9.08;100.00;98987.69;5076402;28;20369;-79
2022/01/10 09:40:50;;;;;;;;;;;;;;;9.46;100.00;98987.59;5076487;28;19924;-79
2022/01/10 09:43:18;;;;;;;;;;;;;;;9.27;100.00;98993.84;5113153;28;19924;-79
2022/01/10 09:45:47;;;;;;;;;;;;;;;9.67;100.00;98990.91;5096576;28;20378;-78
2022/01/10 09:48:14;;;;;;;;;;;;;;;9.86;100.00;98995.06;5097436;28;19924;-79
2022/01/10 09:50:41;;;;;;;;;;;;;;;9.99;100.00;98996.03;5096423;28;19924;-80
2022/01/10 09:53:09;;;;;;;;;;;;;;;9.98;100.00;99002.84;5067527;28;19935;-77
2022/01/10 09:55:36;;;;;;;;;;;;;;;9.24;100.00;99014.19;5071339;28;19960;-78
2022/01/10 09:58:04;;;;;;;;;;;;;;;8.85;100.00;99007.03;5056357;28;20383;-79
2022/01/10 10:00:31;;;;;;;;;;;;;;;9.46;100.00;99010.72;5076014;28;19924;-78
2022/01/10 10:02:58;;;;;;;;;;;;;;;8.84;100.00;99001.88;5072872;28;20323;-79
2022/01/10 10:05:25;;;;;;;;;;;;;;;9.15;100.00;99004.31;5072609;28;19924;-79
2022/01/10 10:07:53;;;;;;;;;;;;;;;9.54;100.00;99008.63;5073089;28;20423;-78
2022/01/10 10:10:21;;;;;;;;;;;;;;;9.77;100.00;99005.94;5053260;28;19925;-79
2022/01/10 10:12:49;;;;;;;;;;;;;;;9.75;100.00;99011.13;5100523;28;20476;-79
2022/01/10 10:15:18;;;;;;;;;;;;;;;9.31;100.00;99005.72;5073350;28;19929;-79
2022/01/10 10:17:46;;;;;;;;;;;;;;;9.63;100.00;99017.28;5072633;28;19925;-89
2022/01/10 10:20:15;;;;;;;;;;;;;;;9.89;100.00;99020.09;5106082;28;19995;-81
2022/01/10 10:22:55;;;;;;;;;;;;;;;9.89;100.00;99030.50;5072859;28;19925;-78
2022/01/10 10:25:23;;;;;;;;;;;;;;;10.14;100.00;99030.94;5072543;28;19925;-81
2022/01/10 10:27:51;;;;;;;;;;;;;;;10.11;100.00;99038.16;5072521;28;20371;-81
2022/01/10 10:30:20;;;;;;;;;;;;;;;10.34;100.00;99040.22;5073687;28;20348;-80
2022/01/10 10:32:50;;;;;;;;;;;;;;;10.34;100.00;99041.03;5066975;28;20296;-83
2022/01/10 10:35:17;;;;;;;;;;;;;;;9.96;100.00;99041.53;5060123;28;20406;-80
2022/01/10 10:37:48;;;;;;;;;;;;;;;9.97;100.00;99043.13;5073505;28;19931;-81
2022/01/10 10:40:16;;;;;;;;;;;;;;;10.38;100.00;99047.34;5073489;28;19925;-81
2022/01/10 10:42:44;;;;;;;;;;;;;;;10.58;100.00;99044.63;5055667;28;19925;-82
2022/01/10 10:45:12;;;;;;;;;;;;;;;10.61;100.00;99046.56;5072390;28;19928;-83
2022/01/10 10:47:43;;;;;;;;;;;;;;;10.73;100.00;99043.97;5072039;28;19948;-81
2022/01/10 10:50:10;;;;;;;;;;;;;;;10.57;100.00;99045.84;5056236;28;20027;-81
2022/01/10 10:52:40;;;;;;;;;;;;;;;10.19;100.00;99050.03;5043035;28;20023;-82
2022/01/10 10:55:09;;;;;;;;;;;;;;;10.37;100.00;99054.13;5072040;28;19931;-82
2022/01/10 10:57:37;;;;;;;;;;;;;;;9.97;100.00;99062.66;5074957;28;19936;-78
2022/01/10 11:00:15;;;;;;;;;;;;;;;9.91;100.00;99069.91;5070428;28;19928;-84
2022/01/10 11:02:43;;;;;;;;;;;;;;;10.25;100.00;99065.09;5071868;28;19985;-76
2022/01/10 11:05:12;;;;;;;;;;;;;;;10.27;100.00;99062.69;5070771;28;19968;-76
2022/01/10 11:07:39;;;;;;;;;;;;;;;10.71;100.00;99053.97;5072266;28;20482;-76
2022/01/10 11:10:15;;;;;;;;;;;;;;;10.89;100.00;99043.28;5072257;28;19924;-76
2022/01/10 11:12:44;;;;;;;;;;;;;;;10.98;100.00;99046.31;5074067;28;19924;-76
2022/01/10 11:15:12;;;;;;;;;;;;;;;10.98;100.00;99045.53;5074487;28;20006;-76
2022/01/10 11:17:40;;;;;;;;;;;;;;;11.06;100.00;99049.78;5056848;28;19925;-76
2022/01/10 11:20:08;;;;;;;;;;;;;;;11.08;100.00;99044.53;5040509;28;19963;-76
2022/01/10 11:22:39;;;;;;;;;;;;;;;11.01;100.00;99050.28;5070085;28;19928;-76
2022/01/10 11:25:17;;;;;;;;;;;;;;;10.56;100.00;99049.84;5054634;28;19925;-75
2022/01/10 11:27:44;;;;;;;;;;;;;;;10.29;100.00;99041.50;5074162;28;19928;-76
2022/01/10 11:30:30;;;;;;;;;;;;;;;10.46;100.00;99048.00;5073756;28;20019;-76
2022/01/10 11:33:04;;;;;;;;;;;;;;;10.68;100.00;99038.06;5074774;28;20027;-75
2022/01/10 11:36:10;;;;;;;;;;;;;;;10.69;100.00;99036.88;5057175;28;19924;-79
2022/01/10 11:38:37;;;;;;;;;;;;;;;10.90;100.00;99042.84;5055062;28;19925;-78
2022/01/10 11:41:06;;;;;;;;;;;;;;;10.56;100.00;99041.44;5073804;28;19931;-79
2022/01/10 11:43:38;;;;;;;;;;;;;;;10.68;100.00;99043.66;5071169;28;19932;-78
2022/01/10 11:46:13;;;;;;;;;;;;;;;10.48;100.00;99046.38;5061739;28;19931;-79
2022/01/10 11:48:59;;;;;;;;;;;;;;;10.85;100.00;99053.75;5072394;28;20054;-78
2022/01/10 11:51:36;;;;;;;;;;;;;;;10.21;100.00;99053.97;5054363;28;19987;-78
2022/01/10 11:54:09;;;;;;;;;;;;;;;9.78;100.00;99052.97;5075077;28;20362;-79
2022/01/10 11:56:50;;;;;;;;;;;;;;;10.59;100.00;99058.16;5063977;28;20002;-79
2022/01/10 11:59:17;;;;;;;;;;;;;;;10.71;100.00;99059.56;5071584;28;19931;-78
2022/01/10 12:01:52;;;;;;;;;;;;;;;10.10;100.00;99052.56;5073396;28;19925;-79
2022/01/10 12:04:20;;;;;;;;;;;;;;;10.52;100.00;99065.88;5089470;28;19924;-78
2022/01/10 12:06:48;;;;;;;;;;;;;;;10.77;100.00;99057.88;5095029;28;20016;-79
2022/01/10 12:09:15;;;;;;;;;;;;;;;11.34;100.00;99061.25;5076970;28;19924;-79
2022/01/10 12:11:45;;;;;;;;;;;;;;;11.39;100.00;99055.13;5093510;28;19927;-79
2022/01/10 12:14:13;;;;;;;;;;;;;;;11.52;100.00;99046.91;5093442;28;20286;-78
2022/01/10 12:16:40;;;;;;;;;;;;;;;10.54;100.00;99055.06;5079583;28;19970;-78
2022/01/10 12:19:08;;;;;;;;;;;;;;;10.55;100.00;99053.84;5072766;28;19924;-79
2022/01/10 12:21:35;;;;;;;;;;;;;;;10.64;100.00;99068.06;5074361;28;19974;-79
2022/01/10 12:24:03;;;;;;;;;;;;;;;10.49;100.00;99063.94;5055697;28;20375;-79
2022/01/10 12:26:30;;;;;;;;;;;;;;;10.79;100.00;99066.63;5072067;28;19963;-79
2022/01/10 12:28:58;;;;;;;;;;;;;;;10.56;100.00;99058.22;5073894;28;19924;-80
2022/01/10 12:31:28;;;;;;;;;;;;;;;10.69;100.00;99062.00;5072701;28;19925;-84
2022/01/10 12:33:55;;;;;;;;;;;;;;;10.69;100.00;99050.84;5072869;28;19931;-80
2022/01/10 12:36:25;;;;;;;;;;;;;;;10.33;100.00;99052.63;5074600;28;19931;-80
2022/01/10 12:38:54;;;;;;;;;;;;;;;10.63;100.00;99055.31;5073296;28;19931;-80
2022/01/10 12:41:21;;;;;;;;;;;;;;;10.76;100.00;99045.13;5074434;28;19956;-80
2022/01/10 12:43:49;;;;;;;;;;;;;;;10.60;100.00;99048.56;5040460;28;19931;-80
2022/01/10 12:46:16;;;;;;;;;;;;;;;10.32;100.00;99045.44;5106682;28;19931;-80
2022/01/10 12:48:46;;;;;;;;;;;;;;;10.56;100.00;99041.44;5074361;28;19942;-80
2022/01/10 12:51:13;;;;;;;;;;;;;;;10.44;100.00;99039.25;5074273;28;20435;-80
2022/01/10 12:53:52;;;;;;;;;;;;;;;10.42;100.00;99050.06;5074333;28;19924;-80
2022/01/10 12:56:22;;;;;;;;;;;;;;;10.66;100.00;99051.69;5074128;28;19925;-80
2022/01/10 12:58:50;;;;;;;;;;;;;;;10.51;100.00;99056.69;5072897;28;19925;-80
2022/01/10 13:01:17;;;;;;;;;;;;;;;10.74;100.00;99050.31;5074116;28;19947;-80